sensor_id;sensor_type;location;lat;lon;timestamp;P1;durP1;ratioP1;P2;durP2;ratioP2
15936;SDS011;9163;48.818;8.976;2024-02-28T00:01:21;23.20;;;16.23;;
15936;SDS011;9163;48.818;8.976;2024-02-28T00:03:49;26.40;;;16.53;;
15936;SDS011;9163;48.818;8.976;2024-02-28T00:06:16;26.63;;;17.43;;
15936;SDS011;9163;48.818;8.976;2024-02-28T00:08:43;26.00;;;17.50;;
15936;SDS011;9163;48.818;8.976;2024-02-28T00:11:10;25.37;;;16.93;;
15936;SDS011;9163;48.818;8.976;2024-02-28T00:13:38;27.73;;;17.97;;
15936;SDS011;9163;48.818;8.976;2024-02-28T00:16:06;27.47;;;17.20;;
15936;SDS011;9163;48.818;8.976;2024-02-28T00:18:34;24.17;;;16.63;;
15936;SDS011;9163;48.818;8.976;2024-02-28T00:21:01;24.53;;;16.73;;
15936;SDS011;9163;48.818;8.976;2024-02-28T00:23:29;25.40;;;17.10;;
15936;SDS011;9163;48.818;8.976;2024-02-28T00:25:56;23.70;;;16.33;;
15936;SDS011;9163;48.818;8.976;2024-02-28T00:28:24;28.33;;;17.60;;
15936;SDS011;9163;48.818;8.976;2024-02-28T00:30:51;28.80;;;18.23;;
15936;SDS011;9163;48.818;8.976;2024-02-28T00:33:19;29.33;;;18.87;;
15936;SDS011;9163;48.818;8.976;2024-02-28T00:35:47;29.70;;;18.13;;
15936;SDS011;9163;48.818;8.976;2024-02-28T00:38:14;29.67;;;18.70;;
15936;SDS011;9163;48.818;8.976;2024-02-28T00:40:41;30.03;;;18.80;;
15936;SDS011;9163;48.818;8.976;2024-02-28T00:43:09;31.30;;;18.27;;
15936;SDS011;9163;48.818;8.976;2024-02-28T00:45:36;29.47;;;18.43;;
15936;SDS011;9163;48.818;8.976;2024-02-28T00:48:03;28.37;;;18.23;;
15936;SDS011;9163;48.818;8.976;2024-02-28T00:50:33;30.77;;;18.30;;
15936;SDS011;9163;48.818;8.976;2024-02-28T00:53:00;29.80;;;18.43;;
15936;SDS011;9163;48.818;8.976;2024-02-28T00:55:27;30.33;;;18.90;;
15936;SDS011;9163;48.818;8.976;2024-02-28T00:57:54;31.43;;;19.40;;
15936;SDS011;9163;48.818;8.976;2024-02-28T01:00:22;29.90;;;19.43;;
15936;SDS011;9163;48.818;8.976;2024-02-28T01:02:49;29.90;;;18.50;;
15936;SDS011;9163;48.818;8.976;2024-02-28T01:05:16;29.67;;;19.10;;
15936;SDS011;9163;48.818;8.976;2024-02-28T01:07:45;31.70;;;19.13;;
15936;SDS011;9163;48.818;8.976;2024-02-28T01:10:12;27.27;;;18.50;;
15936;SDS011;9163;48.818;8.976;2024-02-28T01:12:39;30.97;;;18.70;;
15936;SDS011;9163;48.818;8.976;2024-02-28T01:15:07;36.60;;;20.33;;
15936;SDS011;9163;48.818;8.976;2024-02-28T01:17:34;32.53;;;19.63;;
15936;SDS011;9163;48.818;8.976;2024-02-28T01:20:02;35.83;;;19.50;;
15936;SDS011;9163;48.818;8.976;2024-02-28T01:22:29;32.13;;;19.70;;
15936;SDS011;9163;48.818;8.976;2024-02-28T01:24:58;31.23;;;20.33;;
15936;SDS011;9163;48.818;8.976;2024-02-28T01:27:25;33.23;;;19.93;;
15936;SDS011;9163;48.818;8.976;2024-02-28T01:29:52;32.80;;;19.63;;
15936;SDS011;9163;48.818;8.976;2024-02-28T01:32:20;30.87;;;19.23;;
15936;SDS011;9163;48.818;8.976;2024-02-28T01:34:47;29.17;;;19.17;;
15936;SDS011;9163;48.818;8.976;2024-02-28T01:37:14;32.87;;;19.60;;
15936;SDS011;9163;48.818;8.976;2024-02-28T01:39:41;31.17;;;19.73;;
15936;SDS011;9163;48.818;8.976;2024-02-28T01:42:10;33.80;;;19.43;;
15936;SDS011;9163;48.818;8.976;2024-02-28T01:44:38;31.60;;;18.97;;
15936;SDS011;9163;48.818;8.976;2024-02-28T01:47:11;27.60;;;18.43;;
15936;SDS011;9163;48.818;8.976;2024-02-28T01:49:38;29.73;;;18.20;;
15936;SDS011;9163;48.818;8.976;2024-02-28T01:52:07;27.93;;;18.57;;
15936;SDS011;9163;48.818;8.976;2024-02-28T01:54:34;30.13;;;18.53;;
15936;SDS011;9163;48.818;8.976;2024-02-28T01:57:02;30.47;;;19.17;;
15936;SDS011;9163;48.818;8.976;2024-02-28T01:59:31;29.50;;;18.37;;
15936;SDS011;9163;48.818;8.976;2024-02-28T02:01:59;29.53;;;18.30;;
15936;SDS011;9163;48.818;8.976;2024-02-28T02:04:26;26.60;;;17.70;;
15936;SDS011;9163;48.818;8.976;2024-02-28T02:06:54;28.53;;;17.80;;
15936;SDS011;9163;48.818;8.976;2024-02-28T02:09:23;26.40;;;17.97;;
15936;SDS011;9163;48.818;8.976;2024-02-28T02:11:52;27.90;;;17.73;;
15936;SDS011;9163;48.818;8.976;2024-02-28T02:14:19;28.80;;;17.60;;
15936;SDS011;9163;48.818;8.976;2024-02-28T02:16:47;26.87;;;17.60;;
15936;SDS011;9163;48.818;8.976;2024-02-28T02:19:15;28.83;;;18.03;;
15936;SDS011;9163;48.818;8.976;2024-02-28T02:21:43;28.73;;;18.13;;
15936;SDS011;9163;48.818;8.976;2024-02-28T02:24:17;29.30;;;17.63;;
15936;SDS011;9163;48.818;8.976;2024-02-28T02:26:44;28.33;;;17.47;;
15936;SDS011;9163;48.818;8.976;2024-02-28T02:29:12;27.37;;;17.70;;
15936;SDS011;9163;48.818;8.976;2024-02-28T02:31:39;29.37;;;17.47;;
15936;SDS011;9163;48.818;8.976;2024-02-28T02:34:06;25.07;;;17.03;;
15936;SDS011;9163;48.818;8.976;2024-02-28T02:36:34;29.57;;;18.17;;
15936;SDS011;9163;48.818;8.976;2024-02-28T02:39:01;28.13;;;17.10;;
15936;SDS011;9163;48.818;8.976;2024-02-28T02:41:30;26.10;;;16.90;;
15936;SDS011;9163;48.818;8.976;2024-02-28T02:43:57;29.10;;;18.13;;
15936;SDS011;9163;48.818;8.976;2024-02-28T02:46:24;27.83;;;17.87;;
15936;SDS011;9163;48.818;8.976;2024-02-28T02:49:01;30.83;;;17.87;;
15936;SDS011;9163;48.818;8.976;2024-02-28T02:51:28;28.63;;;17.13;;
15936;SDS011;9163;48.818;8.976;2024-02-28T02:53:55;25.97;;;16.67;;
15936;SDS011;9163;48.818;8.976;2024-02-28T02:56:22;27.37;;;17.13;;
15936;SDS011;9163;48.818;8.976;2024-02-28T02:58:51;26.00;;;17.10;;
15936;SDS011;9163;48.818;8.976;2024-02-28T03:01:18;27.93;;;17.37;;
15936;SDS011;9163;48.818;8.976;2024-02-28T03:03:46;27.30;;;16.73;;
15936;SDS011;9163;48.818;8.976;2024-02-28T03:06:13;27.50;;;17.70;;
15936;SDS011;9163;48.818;8.976;2024-02-28T03:08:40;26.63;;;17.00;;
15936;SDS011;9163;48.818;8.976;2024-02-28T03:11:08;27.50;;;17.77;;
15936;SDS011;9163;48.818;8.976;2024-02-28T03:13:35;27.97;;;17.90;;
15936;SDS011;9163;48.818;8.976;2024-02-28T03:16:04;30.40;;;18.53;;
15936;SDS011;9163;48.818;8.976;2024-02-28T03:18:32;29.00;;;17.30;;
15936;SDS011;9163;48.818;8.976;2024-02-28T03:20:59;27.70;;;17.50;;
15936;SDS011;9163;48.818;8.976;2024-02-28T03:23:27;26.20;;;17.77;;
15936;SDS011;9163;48.818;8.976;2024-02-28T03:25:54;33.87;;;18.67;;
15936;SDS011;9163;48.818;8.976;2024-02-28T03:28:22;27.33;;;17.87;;
15936;SDS011;9163;48.818;8.976;2024-02-28T03:30:49;30.00;;;18.77;;
15936;SDS011;9163;48.818;8.976;2024-02-28T03:33:17;31.63;;;19.17;;
15936;SDS011;9163;48.818;8.976;2024-02-28T03:35:45;28.60;;;19.03;;
15936;SDS011;9163;48.818;8.976;2024-02-28T03:38:12;31.70;;;19.33;;
15936;SDS011;9163;48.818;8.976;2024-02-28T03:40:39;31.37;;;19.13;;
15936;SDS011;9163;48.818;8.976;2024-02-28T03:43:06;32.93;;;19.57;;
15936;SDS011;9163;48.818;8.976;2024-02-28T03:45:36;31.20;;;19.63;;
15936;SDS011;9163;48.818;8.976;2024-02-28T03:48:04;33.03;;;20.40;;
15936;SDS011;9163;48.818;8.976;2024-02-28T03:50:33;29.87;;;19.30;;
15936;SDS011;9163;48.818;8.976;2024-02-28T03:53:00;27.70;;;19.27;;
15936;SDS011;9163;48.818;8.976;2024-02-28T03:55:27;31.60;;;19.30;;
15936;SDS011;9163;48.818;8.976;2024-02-28T03:57:55;29.80;;;18.03;;
15936;SDS011;9163;48.818;8.976;2024-02-28T04:00:22;30.40;;;19.00;;
15936;SDS011;9163;48.818;8.976;2024-02-28T04:02:51;30.27;;;19.30;;
15936;SDS011;9163;48.818;8.976;2024-02-28T04:05:18;29.40;;;19.00;;
15936;SDS011;9163;48.818;8.976;2024-02-28T04:07:47;29.63;;;18.97;;
15936;SDS011;9163;48.818;8.976;2024-02-28T04:10:14;28.60;;;18.53;;
15936;SDS011;9163;48.818;8.976;2024-02-28T04:12:42;30.13;;;19.00;;
15936;SDS011;9163;48.818;8.976;2024-02-28T04:15:10;30.63;;;19.43;;
15936;SDS011;9163;48.818;8.976;2024-02-28T04:17:38;30.23;;;20.83;;
15936;SDS011;9163;48.818;8.976;2024-02-28T04:20:07;30.00;;;19.73;;
15936;SDS011;9163;48.818;8.976;2024-02-28T04:22:35;31.43;;;19.77;;
15936;SDS011;9163;48.818;8.976;2024-02-28T04:25:04;32.60;;;19.93;;
15936;SDS011;9163;48.818;8.976;2024-02-28T04:27:32;34.20;;;19.93;;
15936;SDS011;9163;48.818;8.976;2024-02-28T04:29:59;30.10;;;19.73;;
15936;SDS011;9163;48.818;8.976;2024-02-28T04:32:27;30.03;;;20.27;;
15936;SDS011;9163;48.818;8.976;2024-02-28T04:34:55;31.40;;;20.83;;
15936;SDS011;9163;48.818;8.976;2024-02-28T04:37:23;33.70;;;21.27;;
15936;SDS011;9163;48.818;8.976;2024-02-28T04:39:50;32.70;;;21.47;;
15936;SDS011;9163;48.818;8.976;2024-02-28T04:42:18;32.23;;;19.77;;
15936;SDS011;9163;48.818;8.976;2024-02-28T04:44:46;31.93;;;20.10;;
15936;SDS011;9163;48.818;8.976;2024-02-28T04:47:13;30.53;;;19.57;;
15936;SDS011;9163;48.818;8.976;2024-02-28T04:49:40;30.63;;;20.07;;
15936;SDS011;9163;48.818;8.976;2024-02-28T04:52:07;30.70;;;20.30;;
15936;SDS011;9163;48.818;8.976;2024-02-28T04:54:35;28.90;;;20.17;;
15936;SDS011;9163;48.818;8.976;2024-02-28T04:57:02;30.43;;;19.90;;
15936;SDS011;9163;48.818;8.976;2024-02-28T04:59:31;31.37;;;19.73;;
15936;SDS011;9163;48.818;8.976;2024-02-28T05:01:58;32.50;;;20.13;;
15936;SDS011;9163;48.818;8.976;2024-02-28T05:04:25;29.57;;;19.77;;
15936;SDS011;9163;48.818;8.976;2024-02-28T05:06:53;30.73;;;19.77;;
15936;SDS011;9163;48.818;8.976;2024-02-28T05:09:20;31.77;;;20.03;;
15936;SDS011;9163;48.818;8.976;2024-02-28T05:11:47;33.87;;;20.87;;
15936;SDS011;9163;48.818;8.976;2024-02-28T05:14:14;31.27;;;20.23;;
15936;SDS011;9163;48.818;8.976;2024-02-28T05:16:43;31.77;;;20.67;;
15936;SDS011;9163;48.818;8.976;2024-02-28T05:19:10;32.30;;;20.97;;
15936;SDS011;9163;48.818;8.976;2024-02-28T05:21:40;31.40;;;20.27;;
15936;SDS011;9163;48.818;8.976;2024-02-28T05:24:08;34.03;;;21.70;;
15936;SDS011;9163;48.818;8.976;2024-02-28T05:26:36;31.20;;;20.13;;
15936;SDS011;9163;48.818;8.976;2024-02-28T05:29:04;33.37;;;21.57;;
15936;SDS011;9163;48.818;8.976;2024-02-28T05:31:32;34.43;;;21.13;;
15936;SDS011;9163;48.818;8.976;2024-02-28T05:34:01;32.27;;;20.93;;
15936;SDS011;9163;48.818;8.976;2024-02-28T05:36:28;34.20;;;21.43;;
15936;SDS011;9163;48.818;8.976;2024-02-28T05:38:56;32.17;;;20.60;;
15936;SDS011;9163;48.818;8.976;2024-02-28T05:41:24;32.83;;;21.10;;
15936;SDS011;9163;48.818;8.976;2024-02-28T05:43:51;33.00;;;21.53;;
15936;SDS011;9163;48.818;8.976;2024-02-28T05:46:19;30.27;;;19.97;;
15936;SDS011;9163;48.818;8.976;2024-02-28T05:48:47;30.00;;;20.77;;
15936;SDS011;9163;48.818;8.976;2024-02-28T05:51:16;30.43;;;20.13;;
15936;SDS011;9163;48.818;8.976;2024-02-28T05:53:43;32.53;;;21.10;;
15936;SDS011;9163;48.818;8.976;2024-02-28T05:56:10;30.97;;;20.03;;
15936;SDS011;9163;48.818;8.976;2024-02-28T05:58:40;28.70;;;19.27;;
15936;SDS011;9163;48.818;8.976;2024-02-28T06:01:08;35.60;;;20.70;;
15936;SDS011;9163;48.818;8.976;2024-02-28T06:03:35;33.97;;;20.57;;
15936;SDS011;9163;48.818;8.976;2024-02-28T06:06:03;31.27;;;20.67;;
15936;SDS011;9163;48.818;8.976;2024-02-28T06:08:33;31.70;;;20.33;;
15936;SDS011;9163;48.818;8.976;2024-02-28T06:11:01;32.97;;;21.17;;
15936;SDS011;9163;48.818;8.976;2024-02-28T06:13:29;31.00;;;19.90;;
15936;SDS011;9163;48.818;8.976;2024-02-28T06:15:56;34.07;;;20.93;;
15936;SDS011;9163;48.818;8.976;2024-02-28T06:18:25;34.23;;;21.43;;
15936;SDS011;9163;48.818;8.976;2024-02-28T06:20:53;31.83;;;20.73;;
15936;SDS011;9163;48.818;8.976;2024-02-28T06:23:21;34.83;;;23.40;;
15936;SDS011;9163;48.818;8.976;2024-02-28T06:25:49;36.17;;;22.97;;
15936;SDS011;9163;48.818;8.976;2024-02-28T06:28:16;33.27;;;21.20;;
15936;SDS011;9163;48.818;8.976;2024-02-28T06:30:44;32.47;;;21.00;;
15936;SDS011;9163;48.818;8.976;2024-02-28T06:33:11;33.03;;;20.80;;
15936;SDS011;9163;48.818;8.976;2024-02-28T06:35:39;32.83;;;21.10;;
15936;SDS011;9163;48.818;8.976;2024-02-28T06:38:06;33.47;;;21.47;;
15936;SDS011;9163;48.818;8.976;2024-02-28T06:40:34;33.83;;;21.33;;
15936;SDS011;9163;48.818;8.976;2024-02-28T06:43:02;35.73;;;21.97;;
15936;SDS011;9163;48.818;8.976;2024-02-28T06:45:30;37.17;;;22.27;;
15936;SDS011;9163;48.818;8.976;2024-02-28T06:47:57;35.67;;;22.10;;
15936;SDS011;9163;48.818;8.976;2024-02-28T06:50:25;32.60;;;21.77;;
15936;SDS011;9163;48.818;8.976;2024-02-28T06:52:52;34.50;;;21.93;;
15936;SDS011;9163;48.818;8.976;2024-02-28T06:55:19;35.23;;;21.57;;
15936;SDS011;9163;48.818;8.976;2024-02-28T06:57:47;30.70;;;20.53;;
15936;SDS011;9163;48.818;8.976;2024-02-28T07:00:16;33.27;;;21.63;;
15936;SDS011;9163;48.818;8.976;2024-02-28T07:02:44;34.73;;;21.33;;
15936;SDS011;9163;48.818;8.976;2024-02-28T07:05:12;34.23;;;21.80;;
15936;SDS011;9163;48.818;8.976;2024-02-28T07:07:39;35.63;;;21.33;;
15936;SDS011;9163;48.818;8.976;2024-02-28T07:10:06;34.20;;;21.73;;
15936;SDS011;9163;48.818;8.976;2024-02-28T07:12:34;34.40;;;21.40;;
15936;SDS011;9163;48.818;8.976;2024-02-28T07:15:01;34.40;;;22.03;;
15936;SDS011;9163;48.818;8.976;2024-02-28T07:17:31;31.70;;;20.80;;
15936;SDS011;9163;48.818;8.976;2024-02-28T07:19:58;34.40;;;22.10;;
15936;SDS011;9163;48.818;8.976;2024-02-28T07:22:25;34.70;;;21.00;;
15936;SDS011;9163;48.818;8.976;2024-02-28T07:24:53;32.40;;;21.07;;
15936;SDS011;9163;48.818;8.976;2024-02-28T07:27:21;35.17;;;21.73;;
15936;SDS011;9163;48.818;8.976;2024-02-28T07:29:49;35.13;;;21.83;;
15936;SDS011;9163;48.818;8.976;2024-02-28T07:32:16;37.03;;;22.50;;
15936;SDS011;9163;48.818;8.976;2024-02-28T07:34:45;34.10;;;22.10;;
15936;SDS011;9163;48.818;8.976;2024-02-28T07:37:12;32.87;;;21.43;;
15936;SDS011;9163;48.818;8.976;2024-02-28T07:39:40;32.27;;;20.60;;
15936;SDS011;9163;48.818;8.976;2024-02-28T07:42:07;33.27;;;21.10;;
15936;SDS011;9163;48.818;8.976;2024-02-28T07:44:34;31.97;;;20.37;;
15936;SDS011;9163;48.818;8.976;2024-02-28T07:47:01;32.60;;;20.87;;
15936;SDS011;9163;48.818;8.976;2024-02-28T07:49:28;32.77;;;20.87;;
15936;SDS011;9163;48.818;8.976;2024-02-28T07:51:57;30.83;;;20.13;;
15936;SDS011;9163;48.818;8.976;2024-02-28T07:54:24;31.73;;;19.97;;
15936;SDS011;9163;48.818;8.976;2024-02-28T07:56:52;31.70;;;20.20;;
15936;SDS011;9163;48.818;8.976;2024-02-28T07:59:20;32.60;;;20.80;;
15936;SDS011;9163;48.818;8.976;2024-02-28T08:01:47;33.57;;;20.70;;
15936;SDS011;9163;48.818;8.976;2024-02-28T08:04:14;28.37;;;19.37;;
15936;SDS011;9163;48.818;8.976;2024-02-28T08:06:42;30.87;;;19.57;;
15936;SDS011;9163;48.818;8.976;2024-02-28T08:09:10;33.20;;;20.80;;
15936;SDS011;9163;48.818;8.976;2024-02-28T08:11:38;31.80;;;20.73;;
15936;SDS011;9163;48.818;8.976;2024-02-28T08:14:05;31.13;;;20.13;;
15936;SDS011;9163;48.818;8.976;2024-02-28T08:16:32;30.20;;;19.70;;
15936;SDS011;9163;48.818;8.976;2024-02-28T08:18:59;33.50;;;20.37;;
15936;SDS011;9163;48.818;8.976;2024-02-28T08:21:26;30.70;;;19.43;;
15936;SDS011;9163;48.818;8.976;2024-02-28T08:23:54;29.93;;;19.80;;
15936;SDS011;9163;48.818;8.976;2024-02-28T08:26:24;30.30;;;19.17;;
15936;SDS011;9163;48.818;8.976;2024-02-28T08:28:51;30.53;;;20.30;;
15936;SDS011;9163;48.818;8.976;2024-02-28T08:31:19;27.90;;;18.83;;
15936;SDS011;9163;48.818;8.976;2024-02-28T08:33:46;30.50;;;19.83;;
15936;SDS011;9163;48.818;8.976;2024-02-28T08:36:13;28.97;;;18.67;;
15936;SDS011;9163;48.818;8.976;2024-02-28T08:38:42;30.13;;;19.17;;
15936;SDS011;9163;48.818;8.976;2024-02-28T08:41:10;29.80;;;19.40;;
15936;SDS011;9163;48.818;8.976;2024-02-28T08:43:39;28.70;;;18.90;;
15936;SDS011;9163;48.818;8.976;2024-02-28T08:46:07;27.13;;;17.60;;
15936;SDS011;9163;48.818;8.976;2024-02-28T08:48:34;25.77;;;17.13;;
15936;SDS011;9163;48.818;8.976;2024-02-28T08:51:03;27.97;;;18.20;;
15936;SDS011;9163;48.818;8.976;2024-02-28T08:53:30;25.93;;;17.97;;
15936;SDS011;9163;48.818;8.976;2024-02-28T08:55:58;28.00;;;17.77;;
15936;SDS011;9163;48.818;8.976;2024-02-28T08:58:25;28.17;;;17.83;;
15936;SDS011;9163;48.818;8.976;2024-02-28T09:00:53;28.13;;;18.17;;
15936;SDS011;9163;48.818;8.976;2024-02-28T09:03:21;29.87;;;19.63;;
15936;SDS011;9163;48.818;8.976;2024-02-28T09:05:48;31.87;;;20.07;;
15936;SDS011;9163;48.818;8.976;2024-02-28T09:08:15;30.73;;;18.70;;
15936;SDS011;9163;48.818;8.976;2024-02-28T09:10:43;29.70;;;19.00;;
15936;SDS011;9163;48.818;8.976;2024-02-28T09:13:10;30.37;;;19.17;;
15936;SDS011;9163;48.818;8.976;2024-02-28T09:15:38;27.90;;;18.67;;
15936;SDS011;9163;48.818;8.976;2024-02-28T09:18:07;31.93;;;19.57;;
15936;SDS011;9163;48.818;8.976;2024-02-28T09:20:34;32.30;;;20.10;;
15936;SDS011;9163;48.818;8.976;2024-02-28T09:23:02;29.87;;;18.67;;
15936;SDS011;9163;48.818;8.976;2024-02-28T09:25:29;28.83;;;19.17;;
15936;SDS011;9163;48.818;8.976;2024-02-28T09:27:58;29.57;;;18.73;;
15936;SDS011;9163;48.818;8.976;2024-02-28T09:30:26;28.10;;;19.40;;
15936;SDS011;9163;48.818;8.976;2024-02-28T09:32:53;31.00;;;19.80;;
15936;SDS011;9163;48.818;8.976;2024-02-28T09:35:22;29.10;;;19.40;;
15936;SDS011;9163;48.818;8.976;2024-02-28T09:37:49;28.47;;;18.27;;
15936;SDS011;9163;48.818;8.976;2024-02-28T09:40:16;28.37;;;19.13;;
15936;SDS011;9163;48.818;8.976;2024-02-28T09:42:46;28.93;;;18.50;;
15936;SDS011;9163;48.818;8.976;2024-02-28T09:45:18;29.33;;;18.77;;
15936;SDS011;9163;48.818;8.976;2024-02-28T09:47:48;27.33;;;18.43;;
15936;SDS011;9163;48.818;8.976;2024-02-28T09:50:15;25.93;;;17.57;;
15936;SDS011;9163;48.818;8.976;2024-02-28T09:52:46;24.67;;;17.17;;
15936;SDS011;9163;48.818;8.976;2024-02-28T09:55:14;27.20;;;18.17;;
15936;SDS011;9163;48.818;8.976;2024-02-28T09:57:41;24.53;;;15.83;;
15936;SDS011;9163;48.818;8.976;2024-02-28T10:00:09;25.03;;;15.03;;
15936;SDS011;9163;48.818;8.976;2024-02-28T10:02:38;24.00;;;16.33;;
15936;SDS011;9163;48.818;8.976;2024-02-28T10:05:06;23.53;;;15.70;;
15936;SDS011;9163;48.818;8.976;2024-02-28T10:07:35;22.60;;;15.87;;
15936;SDS011;9163;48.818;8.976;2024-02-28T10:10:05;20.23;;;14.20;;
15936;SDS011;9163;48.818;8.976;2024-02-28T10:12:34;22.00;;;15.13;;
15936;SDS011;9163;48.818;8.976;2024-02-28T10:15:01;19.47;;;13.93;;
15936;SDS011;9163;48.818;8.976;2024-02-28T10:17:29;21.83;;;14.17;;
15936;SDS011;9163;48.818;8.976;2024-02-28T10:19:57;20.20;;;13.97;;
15936;SDS011;9163;48.818;8.976;2024-02-28T10:22:25;18.00;;;13.00;;
15936;SDS011;9163;48.818;8.976;2024-02-28T10:24:56;17.23;;;12.20;;
15936;SDS011;9163;48.818;8.976;2024-02-28T10:27:25;19.37;;;13.30;;
15936;SDS011;9163;48.818;8.976;2024-02-28T10:29:53;19.23;;;12.93;;
15936;SDS011;9163;48.818;8.976;2024-02-28T10:32:20;19.37;;;13.20;;
15936;SDS011;9163;48.818;8.976;2024-02-28T10:34:47;20.43;;;13.83;;
15936;SDS011;9163;48.818;8.976;2024-02-28T10:37:15;24.23;;;14.97;;
15936;SDS011;9163;48.818;8.976;2024-02-28T10:39:44;19.07;;;13.60;;
15936;SDS011;9163;48.818;8.976;2024-02-28T10:42:12;21.50;;;14.27;;
15936;SDS011;9163;48.818;8.976;2024-02-28T10:44:42;22.43;;;14.77;;
15936;SDS011;9163;48.818;8.976;2024-02-28T10:47:10;21.83;;;14.57;;
15936;SDS011;9163;48.818;8.976;2024-02-28T10:49:37;21.43;;;14.80;;
15936;SDS011;9163;48.818;8.976;2024-02-28T10:52:05;21.43;;;14.93;;
15936;SDS011;9163;48.818;8.976;2024-02-28T10:54:36;21.00;;;15.30;;
15936;SDS011;9163;48.818;8.976;2024-02-28T10:57:07;28.93;;;18.53;;
15936;SDS011;9163;48.818;8.976;2024-02-28T10:59:35;29.47;;;18.20;;
15936;SDS011;9163;48.818;8.976;2024-02-28T11:02:06;25.57;;;17.07;;
15936;SDS011;9163;48.818;8.976;2024-02-28T11:04:33;22.80;;;15.93;;
15936;SDS011;9163;48.818;8.976;2024-02-28T11:07:01;28.07;;;18.10;;
15936;SDS011;9163;48.818;8.976;2024-02-28T11:09:29;24.77;;;17.60;;
15936;SDS011;9163;48.818;8.976;2024-02-28T11:11:57;26.23;;;17.17;;
15936;SDS011;9163;48.818;8.976;2024-02-28T11:14:25;24.67;;;17.93;;
15936;SDS011;9163;48.818;8.976;2024-02-28T11:16:59;26.60;;;17.57;;
15936;SDS011;9163;48.818;8.976;2024-02-28T11:19:29;26.53;;;16.83;;
15936;SDS011;9163;48.818;8.976;2024-02-28T11:21:58;25.20;;;16.73;;
15936;SDS011;9163;48.818;8.976;2024-02-28T11:24:29;22.97;;;16.17;;
15936;SDS011;9163;48.818;8.976;2024-02-28T11:26:57;23.87;;;16.27;;
15936;SDS011;9163;48.818;8.976;2024-02-28T11:29:25;25.20;;;16.73;;
15936;SDS011;9163;48.818;8.976;2024-02-28T11:31:54;24.37;;;17.47;;
15936;SDS011;9163;48.818;8.976;2024-02-28T11:34:21;28.80;;;17.20;;
15936;SDS011;9163;48.818;8.976;2024-02-28T11:36:51;26.13;;;17.20;;
15936;SDS011;9163;48.818;8.976;2024-02-28T11:39:20;24.87;;;17.20;;
15936;SDS011;9163;48.818;8.976;2024-02-28T11:41:50;28.13;;;17.80;;
15936;SDS011;9163;48.818;8.976;2024-02-28T11:44:18;25.20;;;17.60;;
15936;SDS011;9163;48.818;8.976;2024-02-28T11:46:46;25.00;;;17.23;;
15936;SDS011;9163;48.818;8.976;2024-02-28T11:49:14;24.10;;;16.57;;
15936;SDS011;9163;48.818;8.976;2024-02-28T11:51:42;24.23;;;16.17;;
15936;SDS011;9163;48.818;8.976;2024-02-28T11:54:10;21.80;;;15.37;;
15936;SDS011;9163;48.818;8.976;2024-02-28T11:56:38;23.70;;;15.00;;
15936;SDS011;9163;48.818;8.976;2024-02-28T11:59:06;23.07;;;15.87;;
15936;SDS011;9163;48.818;8.976;2024-02-28T12:01:34;22.83;;;15.90;;
15936;SDS011;9163;48.818;8.976;2024-02-28T12:04:02;20.63;;;14.50;;
15936;SDS011;9163;48.818;8.976;2024-02-28T12:06:31;20.97;;;14.80;;
15936;SDS011;9163;48.818;8.976;2024-02-28T12:08:59;21.37;;;14.73;;
15936;SDS011;9163;48.818;8.976;2024-02-28T12:11:28;21.50;;;15.77;;
15936;SDS011;9163;48.818;8.976;2024-02-28T12:13:56;22.40;;;15.33;;
15936;SDS011;9163;48.818;8.976;2024-02-28T12:16:24;20.27;;;14.00;;
15936;SDS011;9163;48.818;8.976;2024-02-28T12:18:53;19.63;;;13.90;;
15936;SDS011;9163;48.818;8.976;2024-02-28T12:21:20;19.73;;;14.07;;
15936;SDS011;9163;48.818;8.976;2024-02-28T12:23:49;21.40;;;14.60;;
15936;SDS011;9163;48.818;8.976;2024-02-28T12:26:16;19.03;;;13.70;;
15936;SDS011;9163;48.818;8.976;2024-02-28T12:28:46;19.37;;;13.20;;
15936;SDS011;9163;48.818;8.976;2024-02-28T12:31:14;18.63;;;13.43;;
15936;SDS011;9163;48.818;8.976;2024-02-28T12:33:41;20.90;;;13.20;;
15936;SDS011;9163;48.818;8.976;2024-02-28T12:36:08;18.10;;;13.47;;
15936;SDS011;9163;48.818;8.976;2024-02-28T12:38:36;20.07;;;13.63;;
15936;SDS011;9163;48.818;8.976;2024-02-28T12:41:03;24.73;;;16.00;;
15936;SDS011;9163;48.818;8.976;2024-02-28T12:43:30;20.90;;;14.40;;
15936;SDS011;9163;48.818;8.976;2024-02-28T12:45:59;24.10;;;16.53;;
15936;SDS011;9163;48.818;8.976;2024-02-28T12:48:27;21.67;;;15.13;;
15936;SDS011;9163;48.818;8.976;2024-02-28T12:50:55;22.30;;;15.20;;
15936;SDS011;9163;48.818;8.976;2024-02-28T12:53:22;21.73;;;14.40;;
15936;SDS011;9163;48.818;8.976;2024-02-28T12:55:50;20.87;;;14.10;;
15936;SDS011;9163;48.818;8.976;2024-02-28T12:58:17;18.23;;;13.27;;
15936;SDS011;9163;48.818;8.976;2024-02-28T13:00:44;18.87;;;13.43;;
15936;SDS011;9163;48.818;8.976;2024-02-28T13:03:13;17.43;;;12.43;;
15936;SDS011;9163;48.818;8.976;2024-02-28T13:05:41;18.13;;;12.20;;
15936;SDS011;9163;48.818;8.976;2024-02-28T13:08:08;21.77;;;13.40;;
15936;SDS011;9163;48.818;8.976;2024-02-28T13:10:36;18.93;;;13.27;;
15936;SDS011;9163;48.818;8.976;2024-02-28T13:13:06;21.90;;;14.97;;
15936;SDS011;9163;48.818;8.976;2024-02-28T13:15:33;22.07;;;14.63;;
15936;SDS011;9163;48.818;8.976;2024-02-28T13:18:01;21.53;;;15.20;;
15936;SDS011;9163;48.818;8.976;2024-02-28T13:20:34;20.93;;;14.07;;
15936;SDS011;9163;48.818;8.976;2024-02-28T13:23:03;23.23;;;14.77;;
15936;SDS011;9163;48.818;8.976;2024-02-28T13:25:30;20.40;;;14.60;;
15936;SDS011;9163;48.818;8.976;2024-02-28T13:27:57;22.03;;;15.07;;
15936;SDS011;9163;48.818;8.976;2024-02-28T13:30:25;22.43;;;14.80;;
15936;SDS011;9163;48.818;8.976;2024-02-28T13:32:52;24.27;;;15.70;;
15936;SDS011;9163;48.818;8.976;2024-02-28T13:35:19;23.53;;;16.07;;
15936;SDS011;9163;48.818;8.976;2024-02-28T13:37:48;22.57;;;15.60;;
15936;SDS011;9163;48.818;8.976;2024-02-28T13:40:15;24.63;;;15.77;;
15936;SDS011;9163;48.818;8.976;2024-02-28T13:42:42;25.10;;;16.47;;
15936;SDS011;9163;48.818;8.976;2024-02-28T13:45:10;22.03;;;15.30;;
15936;SDS011;9163;48.818;8.976;2024-02-28T13:47:38;24.20;;;16.10;;
15936;SDS011;9163;48.818;8.976;2024-02-28T13:50:05;24.20;;;15.43;;
15936;SDS011;9163;48.818;8.976;2024-02-28T13:52:35;22.90;;;14.90;;
15936;SDS011;9163;48.818;8.976;2024-02-28T13:55:04;24.70;;;16.63;;
15936;SDS011;9163;48.818;8.976;2024-02-28T13:57:32;22.83;;;15.03;;
15936;SDS011;9163;48.818;8.976;2024-02-28T13:59:59;23.00;;;14.67;;
15936;SDS011;9163;48.818;8.976;2024-02-28T14:02:26;25.33;;;15.43;;
15936;SDS011;9163;48.818;8.976;2024-02-28T14:04:53;21.10;;;13.67;;
15936;SDS011;9163;48.818;8.976;2024-02-28T14:07:21;21.37;;;13.97;;
15936;SDS011;9163;48.818;8.976;2024-02-28T14:09:48;21.90;;;14.60;;
15936;SDS011;9163;48.818;8.976;2024-02-28T14:12:17;23.00;;;14.00;;
15936;SDS011;9163;48.818;8.976;2024-02-28T14:14:44;23.40;;;14.63;;
15936;SDS011;9163;48.818;8.976;2024-02-28T14:17:11;22.87;;;13.97;;
15936;SDS011;9163;48.818;8.976;2024-02-28T14:19:39;20.43;;;13.30;;
15936;SDS011;9163;48.818;8.976;2024-02-28T14:22:06;23.03;;;14.40;;
15936;SDS011;9163;48.818;8.976;2024-02-28T14:24:36;24.17;;;15.03;;
15936;SDS011;9163;48.818;8.976;2024-02-28T14:27:04;20.00;;;13.73;;
15936;SDS011;9163;48.818;8.976;2024-02-28T14:29:32;21.47;;;14.30;;
15936;SDS011;9163;48.818;8.976;2024-02-28T14:32:00;19.70;;;13.53;;
15936;SDS011;9163;48.818;8.976;2024-02-28T14:34:27;19.77;;;13.23;;
15936;SDS011;9163;48.818;8.976;2024-02-28T14:36:57;18.70;;;13.00;;